Time;durP1;ratioP1;P1;durP2;ratioP2;P2;SDS_P1;SDS_P2;PMS_P1;PMS_P2;Temp;Humidity;BMP_temperature;BMP_pressure;BME280_temperature;BME280_humidity;BME280_pressure;Samples;Min_cycle;Max_cycle;Signal;HPM_P1;HPM_P2
2022/11/17 00:01:08;;;;;;;1.10;0.47;;;;;;;15.83;100.00;99413.41;10422915;28;96832;-76
2022/11/17 00:06:13;;;;;;;1.70;0.40;;;;;;;15.90;100.00;99405.13;10421659;28;96681;-75
2022/11/17 00:11:17;;;;;;;2.15;0.35;;;;;;;15.86;100.00;99402.69;10422238;28;96755;-75
2022/11/17 00:16:21;;;;;;;1.50;0.40;;;;;;;15.90;100.00;99397.19;10423021;28;97003;-75
2022/11/17 00:21:27;;;;;;;3.03;0.70;;;;;;;15.87;100.00;99391.16;10421979;28;96746;-75
2022/11/17 00:26:32;;;;;;;2.50;0.52;;;;;;;15.85;100.00;99395.69;10422117;28;97461;-76
2022/11/17 00:36:57;;;;;;;1.00;0.50;;;;;;;15.77;100.00;99374.31;10412763;28;96717;-76
2022/11/17 00:42:00;;;;;;;;;;;;;;;15.75;100.00;99381.44;10422177;28;96727;-75
2022/11/17 00:47:03;;;;;;;2.35;0.47;;;;;;;15.81;100.00;99382.84;10421377;28;96796;-75
2022/11/17 00:52:09;;;;;;;1.73;0.50;;;;;;;15.82;100.00;99380.09;10421070;28;96581;-75
2022/11/17 00:57:12;;;;;;;1.17;0.30;;;;;;;15.80;100.00;99382.00;10420126;28;96803;-76
2022/11/17 01:02:15;;;;;;;0.95;0.32;;;;;;;15.81;100.00;99378.41;10421279;28;96736;-76
2022/11/17 01:07:21;;;;;;;2.08;0.68;;;;;;;15.82;100.00;99364.28;10420658;28;96882;-76
2022/11/17 01:12:24;;;;;;;3.95;0.63;;;;;;;15.86;100.00;99360.50;10420514;28;96789;-76
2022/11/17 01:17:28;;;;;;;3.45;0.70;;;;;;;15.87;100.00;99351.63;10420694;28;96620;-75
2022/11/17 01:22:32;;;;;;;1.95;0.85;;;;;;;15.88;100.00;99349.84;10420432;28;96754;-75
2022/11/17 01:27:35;;;;;;;4.10;0.70;;;;;;;15.87;100.00;99345.50;10420102;28;96926;-75
2022/11/17 01:32:39;;;;;;;3.50;1.17;;;;;;;15.84;100.00;99341.31;10420957;28;97462;-76
2022/11/17 01:37:43;;;;;;;4.97;0.80;;;;;;;15.83;100.00;99334.34;10419934;28;96773;-76
2022/11/17 01:42:46;;;;;;;;;;;;;;;15.78;100.00;99341.72;10402746;27;96826;-76
2022/11/17 01:47:52;;;;;;;2.55;0.55;;;;;;;15.82;100.00;99337.91;10384805;28;96588;-75
2022/11/17 01:53:00;;;;;;;1.52;0.45;;;;;;;15.83;100.00;99334.34;10385297;28;96827;-76
2022/11/17 01:58:08;;;;;;;1.50;0.73;;;;;;;15.85;100.00;99335.06;10385421;28;97440;-75
2022/11/17 02:03:12;;;;;;;1.73;0.40;;;;;;;15.89;100.00;99322.53;10343779;28;96624;-75
2022/11/17 02:08:19;;;;;;;0.93;0.40;;;;;;;15.91;100.00;99319.78;10343861;28;96984;-75
2022/11/17 02:13:23;;;;;;;1.77;0.68;;;;;;;15.90;100.00;99328.66;10343133;28;96651;-75
2022/11/17 02:18:26;;;;;;;1.03;0.50;;;;;;;15.90;100.00;99326.03;10371871;28;97040;-76
2022/11/17 02:24:07;;;;;;;1.25;0.40;;;;;;;15.90;100.00;99315.47;10384758;28;96640;-75
2022/11/17 02:29:19;;;;;;;0.85;0.30;;;;;;;15.90;100.00;99318.13;10384105;28;97156;-75
2022/11/17 02:34:34;;;;;;;2.55;0.40;;;;;;;15.94;100.00;99330.13;10383627;28;97357;-76
2022/11/17 02:39:44;;;;;;;0.43;0.32;;;;;;;15.96;100.00;99333.50;10382807;28;96791;-75
2022/11/17 02:44:56;;;;;;;1.10;0.40;;;;;;;15.96;100.00;99328.22;10421934;28;96861;-76
2022/11/17 02:50:03;;;;;;;1.15;0.35;;;;;;;15.94;100.00;99335.41;10424890;28;96769;-75
2022/11/17 02:55:09;;;;;;;1.27;0.30;;;;;;;15.94;100.00;99335.41;10424465;27;96752;-75
2022/11/17 03:00:16;;;;;;;3.80;0.57;;;;;;;15.92;100.00;99318.84;10424512;28;96700;-75
2022/11/17 03:05:27;;;;;;;1.08;0.38;;;;;;;15.91;100.00;99317.16;10424798;28;96560;-76
2022/11/17 03:10:44;;;;;;;2.58;0.35;;;;;;;15.93;100.00;99323.16;10423135;28;96621;-75
2022/11/17 03:15:55;;;;;;;2.20;0.45;;;;;;;15.93;100.00;99310.84;10425077;28;96802;-75
2022/11/17 03:21:10;;;;;;;1.05;0.40;;;;;;;15.92;100.00;99310.94;10424113;28;96798;-75
2022/11/17 03:26:20;;;;;;;0.88;0.32;;;;;;;15.93;100.00;99315.25;10423924;28;96762;-75
2022/11/17 03:31:27;;;;;;;1.13;0.40;;;;;;;15.92;100.00;99310.94;10421222;28;96723;-75
2022/11/17 03:36:36;;;;;;;3.22;0.63;;;;;;;15.91;100.00;99296.88;10423712;28;96721;-76
2022/11/17 03:41:44;;;;;;;2.25;0.80;;;;;;;15.90;100.00;99297.84;10422674;28;97047;-76
2022/11/17 03:46:53;;;;;;;4.22;0.70;;;;;;;15.92;100.00;99289.84;10423630;28;97003;-75
2022/11/17 03:51:56;;;;;;;1.60;0.45;;;;;;;15.92;100.00;99284.56;10423327;28;96652;-76
2022/11/17 03:57:06;;;;;;;2.58;0.75;;;;;;;15.94;100.00;99272.13;10423025;28;97102;-75
2022/11/17 04:02:14;;;;;;;1.88;0.60;;;;;;;15.97;100.00;99280.66;10380742;28;96703;-75
2022/11/17 04:07:17;;;;;;;2.28;0.50;;;;;;;15.92;100.00;99337.31;10381048;28;96634;-76
2022/11/17 04:17:42;;;;;;;2.13;0.40;;;;;;;15.81;100.00;99346.78;10411238;28;96727;-75
2022/11/17 04:23:05;;;;;;;0.32;0.15;;;;;;;15.74;100.00;99350.78;10420541;28;96882;-76
2022/11/17 04:33:31;;;;;;;1.92;0.20;;;;;;;15.56;100.00;99367.78;10421967;28;97036;-76
2022/11/17 04:38:34;;;;;;;1.52;0.10;;;;;;;15.44;100.00;99372.09;10421931;28;96728;-76
2022/11/17 04:43:37;;;;;;;1.33;0.30;;;;;;;15.38;100.00;99375.97;10421064;28;96690;-76
2022/11/17 04:48:42;;;;;;;1.75;0.38;;;;;;;15.34;100.00;99392.06;10421305;28;96818;-76
2022/11/17 04:53:46;;;;;;;1.30;0.50;;;;;;;15.23;100.00;99414.69;10421440;28;96692;-76
2022/11/17 04:58:49;;;;;;;2.75;0.50;;;;;;;15.17;100.00;99443.22;10422067;28;96716;-75
2022/11/17 05:03:56;;;;;;;2.20;0.47;;;;;;;15.10;100.00;99464.66;10421231;28;97240;-75
2022/11/17 05:09:01;;;;;;;2.92;0.60;;;;;;;15.02;100.00;99490.63;10420746;28;97638;-76
2022/11/17 05:14:04;;;;;;;5.05;0.77;;;;;;;14.94;100.00;99472.69;10419603;28;96743;-76
2022/11/17 05:19:11;;;;;;;3.88;0.88;;;;;;;14.99;100.00;99467.16;10428172;28;96662;-75
2022/11/17 05:24:14;;;;;;;3.63;0.73;;;;;;;14.99;100.00;99469.78;10427063;28;97107;-76
2022/11/17 05:29:20;;;;;;;1.67;0.55;;;;;;;14.84;100.00;99476.84;10427798;28;96703;-76
2022/11/17 05:34:24;;;;;;;2.58;0.77;;;;;;;14.80;100.00;99482.38;10427696;28;96578;-76
2022/11/17 05:39:27;;;;;;;;;;;;;;;14.74;100.00;99479.19;10427737;28;96822;-75
2022/11/17 05:44:30;;;;;;;3.90;0.70;;;;;;;14.75;100.00;99478.25;10427313;28;97001;-76
2022/11/17 05:49:35;;;;;;;6.15;1.08;;;;;;;14.71;100.00;99482.03;10428018;28;96891;-75
2022/11/17 05:54:38;;;;;;;6.03;1.20;;;;;;;14.70;100.00;99472.44;10427212;28;97545;-75
2022/11/17 05:59:46;;;;;;;7.15;1.40;;;;;;;14.69;100.00;99489.16;10427205;28;96832;-75
2022/11/17 06:04:51;;;;;;;3.72;1.20;;;;;;;14.68;100.00;99491.88;10425531;28;96752;-75
2022/11/17 06:09:55;;;;;;;5.75;1.00;;;;;;;14.71;100.00;99491.69;10426981;28;97036;-76
2022/11/17 06:14:58;;;;;;;6.18;1.70;;;;;;;14.71;100.00;99489.94;10426047;28;96767;-76
2022/11/17 06:20:07;;;;;;;4.70;1.52;;;;;;;14.71;100.00;99491.69;10426493;28;96580;-75
2022/11/17 06:25:11;;;;;;;9.30;1.70;;;;;;;14.70;100.00;99496.13;10426364;28;96851;-75
2022/11/17 06:30:14;;;;;;;7.90;1.90;;;;;;;14.71;100.00;99495.19;10422933;27;96851;-75
2022/11/17 06:35:19;;;;;;;6.47;1.98;;;;;;;14.71;100.00;99496.94;10425838;28;96672;-75
2022/11/17 06:40:22;;;;;;;7.35;1.75;;;;;;;14.74;100.00;99484.44;10425884;28;96870;-76
2022/11/17 06:45:26;;;;;;;12.27;2.50;;;;;;;14.74;100.00;99491.50;10425676;28;96684;-76
2022/11/17 06:50:31;;;;;;;11.20;1.90;;;;;;;14.77;100.00;99491.31;10424926;28;97005;-75
2022/11/17 06:55:35;;;;;;;13.55;2.60;;;;;;;14.71;100.00;99510.97;10423752;28;96816;-76
2022/11/17 07:00:38;;;;;;;10.73;2.57;;;;;;;14.75;100.00;99499.31;10424720;28;96849;-76
2022/11/17 07:05:43;;;;;;;12.05;2.63;;;;;;;14.78;100.00;99507.94;10424625;28;96579;-75
2022/11/17 07:10:53;;;;;;;;;;;;;;;14.71;100.00;99494.31;10424878;28;96704;-75
2022/11/17 07:16:03;;;;;;;15.25;3.55;;;;;;;14.74;100.00;99487.09;10424559;28;97167;-76
2022/11/17 07:21:09;;;;;;;17.67;4.20;;;;;;;14.74;100.00;99491.50;10424085;28;96726;-76
2022/11/17 07:26:13;;;;;;;16.50;3.47;;;;;;;14.75;100.00;99494.06;10382384;28;96688;-75
2022/11/17 07:31:16;;;;;;;22.15;4.05;;;;;;;14.78;100.00;99500.06;10383128;28;97495;-75
2022/11/17 07:36:21;;;;;;;25.27;4.45;;;;;;;14.81;100.00;99507.78;10381583;28;96977;-75
2022/11/17 07:41:24;;;;;;;;;;;;;;;14.74;100.00;99509.94;10410134;28;96988;-75
2022/11/17 07:46:27;;;;;;;17.90;3.80;;;;;;;14.72;100.00;99531.06;10422215;28;96703;-75
2022/11/17 07:51:32;;;;;;;13.82;3.92;;;;;;;14.74;100.00;99534.44;10422759;28;96767;-75
2022/11/17 07:56:35;;;;;;;19.08;4.63;;;;;;;14.75;100.00;99530.06;10423059;28;96752;-75
2022/11/17 08:01:38;;;;;;;19.13;4.40;;;;;;;14.75;100.00;99546.69;10422806;28;96722;-75
2022/11/17 08:06:44;;;;;;;20.40;3.97;;;;;;;14.70;100.00;99553.16;10422387;28;96709;-75
2022/11/17 08:11:47;;;;;;;19.52;3.95;;;;;;;14.68;100.00;99555.03;10422422;28;96723;-75
2022/11/17 08:16:50;;;;;;;20.33;3.75;;;;;;;14.68;100.00;99566.41;10422393;28;97214;-75
2022/11/17 08:21:55;;;;;;;23.75;5.60;;;;;;;14.74;100.00;99578.34;10423182;28;97023;-76
2022/11/17 08:26:58;;;;;;;18.65;4.10;;;;;;;14.88;100.00;99583.63;10422144;28;96632;-75
2022/11/17 08:32:01;;;;;;;16.17;3.90;;;;;;;15.03;100.00;99587.13;10422042;28;96694;-75
2022/11/17 08:37:06;;;;;;;20.95;4.13;;;;;;;15.07;100.00;99593.03;10420336;28;96874;-75
2022/11/17 08:42:09;;;;;;;22.90;4.38;;;;;;;15.05;100.00;99595.75;10421464;28;96667;-75
2022/11/17 08:47:12;;;;;;;22.75;4.80;;;;;;;15.08;100.00;99589.47;10421231;28;96628;-76
2022/11/17 08:52:18;;;;;;;19.52;4.40;;;;;;;15.09;100.00;99589.38;10420908;28;96794;-75
2022/11/17 08:57:21;;;;;;;22.83;5.68;;;;;;;15.15;100.00;99579.41;10421141;28;96663;-76
2022/11/17 09:02:25;;;;;;;18.83;4.97;;;;;;;15.19;100.00;99586.19;10420672;28;96601;-75
2022/11/17 09:07:32;;;;;;;19.77;4.78;;;;;;;15.38;100.00;99576.19;10420727;28;96668;-75
2022/11/17 09:12:37;;;;;;;15.20;4.30;;;;;;;15.72;100.00;99573.22;10418651;28;96832;-75
2022/11/17 09:17:41;;;;;;;20.67;4.65;;;;;;;15.87;100.00;99582.78;10401354;28;97228;-71
2022/11/17 09:22:46;;;;;;;;;;;;;;;15.76;100.00;99586.13;10407051;28;97465;-73
2022/11/17 09:27:50;;;;;;;23.60;5.50;;;;;;;15.66;100.00;99591.13;10402231;28;97139;-73
2022/11/17 09:32:53;;;;;;;17.33;5.40;;;;;;;15.40;100.00;99597.16;10395138;28;99062;-73
2022/11/17 09:38:00;;;;;;;19.50;5.68;;;;;;;15.15;100.00;99605.72;10406798;28;97809;-73
2022/11/17 09:43:08;;;;;;;23.05;5.97;;;;;;;15.11;100.00;99620.88;10408100;28;96942;-73
2022/11/17 09:48:16;;;;;;;22.55;5.82;;;;;;;15.16;100.00;99623.22;10406533;28;97531;-72
2022/11/17 09:53:45;;;;;;;23.48;5.28;;;;;;;15.20;100.00;99630.00;10404105;28;96928;-72
2022/11/17 09:58:55;;;;;;;17.25;4.63;;;;;;;15.29;100.00;99619.75;10408740;28;97602;-73
2022/11/17 10:04:00;;;;;;;22.85;5.18;;;;;;;15.38;100.00;99631.50;10413160;28;98635;-73
2022/11/17 10:09:11;;;;;;;27.52;5.80;;;;;;;15.52;100.00;99621.91;10409381;28;99153;-73
2022/11/17 10:14:16;;;;;;;21.05;6.03;;;;;;;15.71;100.00;99603.19;10414649;28;96855;-73
2022/11/17 10:19:22;;;;;;;27.30;6.18;;;;;;;15.85;100.00;99611.88;10408002;28;96874;-74
2022/11/17 10:24:40;;;;;;;27.50;6.63;;;;;;;15.93;100.00;99592.09;10418272;28;97643;-73
2022/11/17 10:29:56;;;;;;;27.80;5.65;;;;;;;15.97;100.00;99589.16;10414542;28;96734;-73
2022/11/17 10:35:14;;;;;;;25.15;5.78;;;;;;;16.23;100.00;99597.16;10405101;28;96916;-73
2022/11/17 10:40:20;;;;;;;22.42;6.45;;;;;;;16.35;100.00;99587.59;10411123;28;96906;-74
2022/11/17 10:45:28;;;;;;;24.48;5.15;;;;;;;16.42;100.00;99591.50;10415094;28;96835;-74
2022/11/17 10:50:31;;;;;;;24.23;5.67;;;;;;;16.51;100.00;99590.88;10408250;28;97244;-74
2022/11/17 10:55:37;;;;;;;24.08;5.82;;;;;;;16.48;100.00;99588.44;10411410;28;97509;-74
2022/11/17 11:00:43;;;;;;;17.20;5.30;;;;;;;16.75;100.00;99574.38;10410073;28;98615;-73
2022/11/17 11:05:56;;;;;;;17.10;4.90;;;;;;;16.90;100.00;99573.31;10416502;28;96942;-74
2022/11/17 11:11:03;;;;;;;25.75;5.53;;;;;;;16.87;100.00;99567.41;10417058;28;98447;-74
2022/11/17 11:16:09;;;;;;;22.70;5.82;;;;;;;16.90;100.00;99567.19;10414535;27;97634;-74
2022/11/17 11:21:20;;;;;;;23.90;5.57;;;;;;;16.50;100.00;99560.19;10417489;28;97200;-74
2022/11/17 11:26:37;;;;;;;20.33;4.93;;;;;;;16.39;100.00;99555.59;10414451;28;97750;-74
2022/11/17 11:31:51;;;;;;;22.10;6.05;;;;;;;16.12;100.00;99565.34;10410311;28;99188;-74
2022/11/17 11:37:00;;;;;;;17.85;4.88;;;;;;;15.86;100.00;99573.22;10414547;28;96812;-74
2022/11/17 11:42:30;;;;;;;16.98;4.38;;;;;;;15.48;100.00;99602.81;10413789;28;99111;-75
2022/11/17 11:47:54;;;;;;;13.05;3.50;;;;;;;15.09;100.00;99607.78;10397016;28;97228;-74
2022/11/17 11:53:03;;;;;;;13.65;4.15;;;;;;;15.24;100.00;99610.44;10411349;28;98831;-73
2022/11/17 11:58:15;;;;;;;16.10;3.80;;;;;;;15.43;100.00;99600.47;10409194;28;96814;-73
2022/11/17 12:03:25;;;;;;;13.00;3.53;;;;;;;15.54;100.00;99598.94;10410904;28;96881;-74
2022/11/17 12:08:38;;;;;;;15.32;3.60;;;;;;;15.62;100.00;99589.63;10400565;28;99389;-75
2022/11/17 12:13:44;;;;;;;16.90;4.40;;;;;;;15.75;100.00;99589.69;10402257;28;96925;-75
2022/11/17 12:18:55;;;;;;;15.43;4.13;;;;;;;16.08;100.00;99575.25;10404274;28;99080;-73
2022/11/17 12:24:18;;;;;;;14.50;3.97;;;;;;;16.33;100.00;99568.34;10401465;28;97848;-78
2022/11/17 12:29:47;;;;;;;10.25;3.67;;;;;;;16.63;100.00;99571.56;10412040;28;97088;-78
2022/11/17 12:35:24;;;;;;;11.70;3.95;;;;;;;16.89;100.00;99565.50;10412301;28;98919;-78
2022/11/17 12:40:52;;;;;;;15.80;4.35;;;;;;;16.95;100.00;99550.09;10412372;28;96836;-78
2022/11/17 12:46:19;;;;;;;15.05;3.90;;;;;;;16.89;100.00;99558.41;10396222;28;97436;-76
2022/11/17 12:51:30;;;;;;;14.05;4.05;;;;;;;16.81;100.00;99552.81;10403858;28;98442;-78
2022/11/17 12:56:51;;;;;;;19.02;4.13;;;;;;;16.77;100.00;99549.53;10413506;28;96700;-77
2022/11/17 13:02:04;;;;;;;13.52;3.53;;;;;;;17.07;100.00;99547.50;10415065;28;96765;-77
2022/11/17 13:07:16;;;;;;;12.88;2.97;;;;;;;16.99;100.00;99543.63;10411984;28;96775;-77
2022/11/17 13:12:25;;;;;;;10.98;3.08;;;;;;;16.66;100.00;99538.00;10410548;27;96915;-80
2022/11/17 13:17:32;;;;;;;9.38;2.97;;;;;;;16.61;100.00;99547.09;10402463;28;98798;-82
2022/11/17 13:22:35;;;;;;;13.43;2.67;;;;;;;16.63;100.00;99534.63;10400917;28;96820;-84
2022/11/17 13:27:45;;;;;;;7.55;2.10;;;;;;;16.68;100.00;99525.56;10406959;28;99168;-84
2022/11/17 13:33:01;;;;;;;6.65;1.92;;;;;;;16.31;100.00;99528.03;10413072;28;98592;-85
2022/11/17 13:38:15;;;;;;;8.23;2.03;;;;;;;15.97;100.00;99538.22;10402177;28;97057;-82
2022/11/17 13:43:21;;;;;;;7.10;2.20;;;;;;;15.84;100.00;99556.63;10410421;28;97529;-82
2022/11/17 13:48:40;;;;;;;11.35;2.58;;;;;;;15.54;100.00;99576.06;10414793;28;98227;-84
2022/11/17 13:53:47;;;;;;;8.60;2.47;;;;;;;15.42;100.00;99597.91;10412891;28;98985;-80
2022/11/17 13:58:52;;;;;;;9.82;2.42;;;;;;;15.29;100.00;99588.16;10411812;28;97921;-82
2022/11/17 14:04:10;;;;;;;;;;;;;;;15.35;100.00;99594.81;10411871;28;97952;-83
2022/11/17 14:09:24;;;;;;;12.18;2.58;;;;;;;15.63;100.00;99596.63;10410248;28;98443;-84
2022/11/17 14:14:34;;;;;;;6.40;2.00;;;;;;;15.64;100.00;99594.81;10405481;28;99101;-83
2022/11/17 14:19:40;;;;;;;8.90;2.30;;;;;;;15.67;100.00;99592.81;10411848;28;96867;-83
2022/11/17 14:24:47;;;;;;;9.00;2.13;;;;;;;15.72;100.00;99592.53;10409311;28;97310;-82
2022/11/17 14:29:52;;;;;;;10.90;2.30;;;;;;;15.75;100.00;99596.75;10404077;28;98145;-83
2022/11/17 14:34:57;;;;;;;8.02;2.22;;;;;;;15.63;100.00;99598.38;10414766;28;96992;-84
2022/11/17 14:40:04;;;;;;;8.82;2.35;;;;;;;15.56;100.00;99599.69;10413584;27;98482;-83
2022/11/17 14:45:09;;;;;;;9.07;2.88;;;;;;;15.61;100.00;99608.19;10412940;28;97370;-82
2022/11/17 14:50:14;;;;;;;4.15;2.08;;;;;;;15.71;100.00;99609.28;10409930;28;96953;-80
2022/11/17 14:55:21;;;;;;;9.68;2.72;;;;;;;15.89;100.00;99601.97;10404754;28;97982;-79
2022/11/17 15:00:25;;;;;;;7.15;2.95;;;;;;;15.97;100.00;99597.06;10411592;28;96782;-86
2022/11/17 15:05:29;;;;;;;11.07;2.92;;;;;;;16.28;100.00;99591.59;10407393;28;97216;-83
2022/11/17 15:10:35;;;;;;;6.72;2.67;;;;;;;16.74;100.00;99580.56;10413874;28;96890;-81
2022/11/17 15:15:38;;;;;;;11.27;2.92;;;;;;;16.60;100.00;99582.34;10408745;28;99210;-80
2022/11/17 15:20:44;;;;;;;10.77;3.10;;;;;;;16.12;100.00;99573.25;10409763;28;96859;-82
2022/11/17 15:26:23;;;;;;;15.68;3.50;;;;;;;15.80;100.00;99566.50;10408726;28;99219;-81
2022/11/17 15:31:31;;;;;;;7.15;2.70;;;;;;;15.79;100.00;99570.13;10412874;28;96826;-80
2022/11/17 15:36:53;;;;;;;11.77;2.65;;;;;;;15.67;100.00;99561.19;10415390;27;99035;-81
2022/11/17 15:42:01;;;;;;;16.27;3.25;;;;;;;15.56;100.00;99568.06;10414157;28;97005;-81
2022/11/17 15:47:34;;;;;;;11.02;3.33;;;;;;;15.45;100.00;99561.69;10413990;28;96890;-82
2022/11/17 15:52:53;;;;;;;11.50;3.05;;;;;;;15.36;100.00;99556.16;10410936;28;97235;-83
2022/11/17 15:58:13;;;;;;;13.23;3.00;;;;;;;15.25;100.00;99562.94;10411439;27;97664;-82
2022/11/17 16:03:48;;;;;;;8.82;3.05;;;;;;;15.29;100.00;99559.16;10414137;28;96790;-78
2022/11/17 16:08:51;;;;;;;11.82;3.33;;;;;;;15.37;100.00;99563.09;10414748;28;96917;-75
2022/11/17 16:13:54;;;;;;;12.50;3.08;;;;;;;15.23;100.00;99561.34;10417888;28;97079;-75
2022/11/17 16:18:59;;;;;;;9.85;3.15;;;;;;;15.17;100.00;99557.31;10414611;28;98963;-81
2022/11/17 16:24:03;;;;;;;;;;;;;;;15.15;100.00;99584.66;10386344;28;96818;-77
2022/11/17 16:29:07;;;;;;;10.80;3.13;;;;;;;15.11;100.00;99587.50;10414444;28;96649;-77
2022/11/17 16:34:14;;;;;;;13.90;3.15;;;;;;;15.08;100.00;99582.41;10421395;28;96960;-77
2022/11/17 16:39:18;;;;;;;8.32;2.80;;;;;;;14.95;100.00;99599.91;10421567;28;96652;-77
2022/11/17 16:44:22;;;;;;;15.07;3.63;;;;;;;14.75;100.00;99603.75;10420933;28;96832;-77
2022/11/17 16:49:28;;;;;;;11.00;4.30;;;;;;;14.56;100.00;99609.25;10421502;28;96691;-77
2022/11/17 16:54:32;;;;;;;14.73;4.18;;;;;;;14.49;100.00;99619.28;10421043;28;96789;-77
2022/11/17 16:59:35;;;;;;;16.15;4.25;;;;;;;14.49;100.00;99623.72;10421939;28;96870;-77
2022/11/17 17:04:40;;;;;;;13.35;3.58;;;;;;;14.35;100.00;99619.25;10420949;28;96809;-77
2022/11/17 17:09:43;;;;;;;11.05;3.22;;;;;;;14.36;100.00;99613.88;10420994;27;97251;-77
2022/11/17 17:14:46;;;;;;;12.40;3.13;;;;;;;14.22;100.00;99626.94;10427140;28;96668;-78
2022/11/17 17:19:51;;;;;;;14.55;3.63;;;;;;;14.19;100.00;99635.00;10427610;28;96863;-77
2022/11/17 17:24:54;;;;;;;;;;;;;;;14.18;100.00;99635.94;10428420;28;97223;-77
2022/11/17 17:29:57;;;;;;;16.80;3.70;;;;;;;14.23;100.00;99639.16;10427646;28;96624;-77
2022/11/17 17:35:02;;;;;;;9.75;2.90;;;;;;;14.30;100.00;99640.50;10426888;28;96821;-77
2022/11/17 17:40:05;;;;;;;;;;;;;;;14.25;100.00;99639.91;10427810;28;96557;-77
2022/11/17 17:45:09;;;;;;;15.27;4.00;;;;;;;14.29;100.00;99644.06;10427505;28;96969;-77
2022/11/17 17:50:14;;;;;;;12.30;2.90;;;;;;;14.29;100.00;99649.31;10427584;28;97590;-77
2022/11/17 17:55:17;;;;;;;;;;;;;;;14.23;100.00;99651.44;10427478;28;96784;-77
2022/11/17 18:00:21;;;;;;;13.13;3.15;;;;;;;14.22;100.00;99645.34;10426840;28;96659;-77
2022/11/17 18:05:26;;;;;;;14.30;3.20;;;;;;;14.20;100.00;99647.22;10425602;28;96746;-77
2022/11/17 18:10:29;;;;;;;11.02;2.83;;;;;;;14.18;100.00;99649.94;10426223;28;96819;-77
2022/11/17 18:15:32;;;;;;;17.08;3.42;;;;;;;14.19;100.00;99646.38;10426200;28;96972;-77
2022/11/17 18:20:37;;;;;;;11.80;3.50;;;;;;;14.17;100.00;99650.00;10426109;28;96826;-77
2022/11/17 18:25:40;;;;;;;;;;;;;;;14.16;100.00;99653.59;10425291;27;97169;-77
2022/11/17 18:30:43;;;;;;;14.45;3.65;;;;;;;14.17;100.00;99661.38;10425607;28;96750;-77
2022/11/17 18:35:48;;;;;;;12.80;3.30;;;;;;;14.18;100.00;99678.03;10423810;28;97368;-77
2022/11/17 18:40:51;;;;;;;12.93;3.38;;;;;;;14.22;100.00;99678.69;10425875;28;96704;-77
2022/11/17 18:46:03;;;;;;;10.77;3.65;;;;;;;14.17;100.00;99679.78;10425476;28;96728;-77
2022/11/17 18:51:09;;;;;;;14.63;3.72;;;;;;;14.23;100.00;99675.97;10425092;28;97005;-77
2022/11/17 18:56:24;;;;;;;15.57;5.40;;;;;;;14.25;100.00;99676.75;10423874;28;96829;-77
2022/11/17 19:01:30;;;;;;;17.08;3.83;;;;;;;14.17;100.00;99678.94;10424294;28;96575;-77
2022/11/17 19:06:35;;;;;;;11.57;3.80;;;;;;;14.16;100.00;99674.63;10424591;28;96772;-77
2022/11/17 19:11:38;;;;;;;11.95;3.90;;;;;;;14.14;100.00;99674.72;10424454;28;98085;-77
2022/11/17 19:16:41;;;;;;;11.65;3.53;;;;;;;14.17;100.00;99682.41;10424109;28;96687;-77
2022/11/17 19:21:48;;;;;;;15.52;4.38;;;;;;;14.19;100.00;99690.22;10423944;28;96760;-77
2022/11/17 19:26:51;;;;;;;11.30;4.32;;;;;;;14.18;100.00;99681.47;10424210;28;96748;-77
2022/11/17 19:31:55;;;;;;;15.02;3.90;;;;;;;14.18;100.00;99688.53;10424377;28;97255;-77
2022/11/17 19:36:59;;;;;;;12.10;3.60;;;;;;;14.21;100.00;99683.13;10423422;27;97023;-77
2022/11/17 19:42:02;;;;;;;14.77;3.88;;;;;;;14.24;100.00;99687.34;10423134;28;96791;-77
2022/11/17 19:47:06;;;;;;;12.05;3.92;;;;;;;14.18;100.00;99680.66;10422494;28;96747;-77
2022/11/17 19:52:10;;;;;;;13.55;3.88;;;;;;;14.11;100.00;99684.56;10422917;28;96621;-77
2022/11/17 19:57:13;;;;;;;12.50;3.78;;;;;;;14.08;100.00;99700.50;10423264;28;96670;-77
2022/11/17 20:02:17;;;;;;;8.07;3.47;;;;;;;14.10;100.00;99706.50;10423046;28;96887;-77
2022/11/17 20:07:21;;;;;;;9.57;3.13;;;;;;;14.05;100.00;99713.81;10422669;28;96646;-77
2022/11/17 20:12:25;;;;;;;9.43;3.17;;;;;;;14.00;100.00;99712.28;10423098;28;96770;-77
2022/11/17 20:17:28;;;;;;;11.73;3.08;;;;;;;14.02;100.00;99729.72;10422187;28;96744;-77
2022/11/17 20:22:33;;;;;;;11.05;3.13;;;;;;;13.96;100.00;99726.50;10423104;28;96695;-77
2022/11/17 20:27:36;;;;;;;10.77;2.83;;;;;;;14.00;100.00;99733.31;10421324;28;97461;-77
2022/11/17 20:32:39;;;;;;;8.43;2.80;;;;;;;13.98;100.00;99735.19;10421742;28;96711;-77
2022/11/17 20:37:44;;;;;;;14.98;3.00;;;;;;;13.93;100.00;99737.22;10421276;28;96775;-77
2022/11/17 20:42:47;;;;;;;11.07;2.80;;;;;;;13.85;100.00;99744.66;10421053;28;96595;-77
2022/11/17 20:47:50;;;;;;;9.15;2.67;;;;;;;13.78;100.00;99759.06;10420616;27;97008;-77
2022/11/17 20:52:55;;;;;;;10.38;3.17;;;;;;;13.81;100.00;99769.38;10421545;28;96734;-77
2022/11/17 20:57:58;;;;;;;11.73;2.83;;;;;;;13.75;100.00;99765.31;10421046;28;96761;-77
2022/11/17 21:03:02;;;;;;;10.27;3.00;;;;;;;13.75;100.00;99764.47;10420809;28;96623;-77
2022/11/17 21:08:07;;;;;;;12.20;3.47;;;;;;;13.77;100.00;99783.63;10420891;28;96616;-77
2022/11/17 21:13:10;;;;;;;10.20;2.83;;;;;;;13.78;100.00;99801.94;10421432;28;96546;-77
2022/11/17 21:18:25;;;;;;;10.27;2.92;;;;;;;13.77;100.00;99804.66;10420094;28;96854;-77
2022/11/17 21:23:31;;;;;;;13.80;3.83;;;;;;;13.78;100.00;99801.94;10420539;28;96993;-77
2022/11/17 21:28:35;;;;;;;14.88;3.50;;;;;;;13.81;100.00;99809.66;10419563;28;96653;-77
2022/11/17 21:33:39;;;;;;;8.38;3.05;;;;;;;13.76;100.00;99802.97;10418033;28;96746;-77
2022/11/17 21:38:45;;;;;;;10.07;3.33;;;;;;;13.72;100.00;99806.66;10420645;28;96620;-77
2022/11/17 21:43:50;;;;;;;9.02;3.80;;;;;;;13.62;100.00;99804.53;10419755;28;96511;-77
2022/11/17 21:48:55;;;;;;;11.13;3.70;;;;;;;13.66;100.00;99810.47;10419663;28;96778;-77
2022/11/17 21:54:02;;;;;;;12.95;3.67;;;;;;;13.62;100.00;99808.94;10419784;28;96569;-77
2022/11/17 21:59:09;;;;;;;10.57;3.33;;;;;;;13.72;100.00;99804.88;10423771;27;96798;-77
2022/11/17 22:04:14;;;;;;;9.45;2.95;;;;;;;13.62;100.00;99812.41;10427401;28;96829;-77
2022/11/17 22:09:19;;;;;;;11.20;3.35;;;;;;;13.66;100.00;99826.22;10426538;28;96591;-77
2022/11/17 22:14:22;;;;;;;16.55;3.88;;;;;;;13.58;100.00;99821.34;10426243;28;96744;-77
2022/11/17 22:19:27;;;;;;;10.48;2.92;;;;;;;13.58;100.00;99834.50;10424866;28;96682;-77
2022/11/17 22:24:32;;;;;;;11.60;2.90;;;;;;;13.63;100.00;99839.53;10426204;28;96959;-77
2022/11/17 22:29:35;;;;;;;8.98;3.30;;;;;;;13.59;100.00;99825.69;10425859;28;96818;-77
2022/11/17 22:34:38;;;;;;;10.27;3.10;;;;;;;13.57;100.00;99824.94;10425707;28;96610;-77
2022/11/17 22:39:44;;;;;;;12.02;3.10;;;;;;;13.51;100.00;99822.59;10425897;28;96936;-77
2022/11/17 22:44:47;;;;;;;10.02;3.22;;;;;;;13.48;100.00;99830.66;10425216;28;96836;-77
2022/11/17 22:49:50;;;;;;;12.55;2.88;;;;;;;13.45;100.00;99830.81;10425257;28;96606;-77
2022/11/17 22:54:55;;;;;;;5.57;2.40;;;;;;;13.35;100.00;99829.56;10426033;28;97746;-77
2022/11/17 22:59:58;;;;;;;10.23;2.88;;;;;;;13.35;100.00;99825.16;10424926;28;96624;-77
2022/11/17 23:05:01;;;;;;;10.18;3.25;;;;;;;13.31;100.00;99830.63;10425042;28;96841;-77
2022/11/17 23:10:07;;;;;;;11.43;3.10;;;;;;;13.31;100.00;99828.88;10423130;28;96746;-77
2022/11/17 23:15:10;;;;;;;11.05;3.50;;;;;;;13.30;100.00;99827.16;10424232;28;96787;-77
2022/11/17 23:20:13;;;;;;;9.68;2.92;;;;;;;13.35;100.00;99834.81;10424461;28;96808;-77
2022/11/17 23:25:18;;;;;;;10.00;3.30;;;;;;;13.35;100.00;99837.44;10424230;28;96952;-77
2022/11/17 23:30:21;;;;;;;11.70;3.83;;;;;;;13.30;100.00;99831.59;10423379;28;96746;-77
2022/11/17 23:35:25;;;;;;;12.35;2.80;;;;;;;13.27;100.00;99831.72;10423828;28;97093;-77
2022/11/17 23:40:29;;;;;;;9.18;2.97;;;;;;;13.21;100.00;99833.72;10423655;28;96608;-77